Terminal Aerodrome Forecast
Issued by NWS

Home | Current Version | Previous Version | Text Only | Print | Product List | Glossary On
Versions: 1 2 3 4 5 6 7 8 9 10 11 12 13 14 15 16 17 18 19 20 21
703
FTAK31 PAJN 170750 AAA
TAFAKT
TAF AMD
PAKT 170750Z 1708/1806 12009KT P6SM SCT007 OVC015
      TEMPO 1708/1712 3SM -RA BR BKN007 OVC010
     FM171900 14005KT P6SM -RA OVC035
     FM180000 15010G18KT 4SM -RA BR SCT007 OVC015
      AMD LTD TO CLD VIS AND WIND 1708/1715=

USA.gov is the U.S. government's official web portal to all federal, state and local government web resources and services.